Time;durP1;ratioP1;P1;durP2;ratioP2;P2;SDS_P1;SDS_P2;PMS_P1;PMS_P2;Temp;Humidity;BMP_temperature;BMP_pressure;BME280_temperature;BME280_humidity;BME280_pressure;Samples;Min_cycle;Max_cycle;Signal;HPM_P1;HPM_P2
2021/06/14 00:02:05;;;;;;;;;;;;;;;13.71;54.52;97074.89;1715589;83;20152;-84
2021/06/14 00:04:32;;;;;;;;;;;;;;;13.63;55.30;97080.08;1716315;83;20136;-81
2021/06/14 00:07:00;;;;;;;;;;;;;;;13.42;55.29;97049.31;1716418;83;20132;-88
2021/06/14 00:09:31;;;;;;;;;;;;;;;13.52;55.24;97078.91;1718341;82;20160;-85
2021/06/14 00:11:58;;;;;;;;;;;;;;;13.50;55.96;97071.11;1718191;83;20098;-85
2021/06/14 00:14:24;;;;;;;;;;;;;;;13.49;55.26;97076.06;1721311;83;20120;-84
2021/06/14 00:16:50;;;;;;;;;;;;;;;13.52;55.51;97070.96;1721143;83;20132;-82
2021/06/14 00:19:16;;;;;;;;;;;;;;;13.54;55.63;97069.02;1714606;83;20093;-88
2021/06/14 00:21:43;;;;;;;;;;;;;;;13.54;54.77;97068.55;1711020;83;20144;-85
2021/06/14 00:24:10;;;;;;;;;;;;;;;13.56;56.07;97061.77;1710591;83;20122;-88
2021/06/14 00:26:36;;;;;;;;;;;;;;;13.56;55.55;97062.59;1710588;83;20129;-82
2021/06/14 00:29:03;;;;;;;;;;;;;;;13.56;55.49;97065.23;1716118;83;20129;-85
2021/06/14 00:31:29;;;;;;;;;;;;;;;13.55;54.98;97072.01;1720234;83;20117;-88
2021/06/14 00:33:55;;;;;;;;;;;;;;;13.57;55.08;97068.73;1717270;83;20418;-87
2021/06/14 00:36:21;;;;;;;;;;;;;;;13.58;54.64;97069.09;1719820;83;20512;-87
2021/06/14 00:38:47;;;;;;;;;;;;;;;13.60;54.71;97068.43;1717438;82;20406;-90
2021/06/14 00:41:14;;;;;;;;;;;;;;;13.62;55.16;97069.13;1701044;83;20164;-84
2021/06/14 00:43:42;;;;;;;;;;;;;;;13.62;55.56;97070.95;1704157;83;20132;-85
2021/06/14 00:46:08;;;;;;;;;;;;;;;13.62;55.23;97069.13;1721854;83;20116;-87
2021/06/14 00:48:35;;;;;;;;;;;;;;;13.66;54.63;97077.62;1721566;83;20120;-87
2021/06/14 00:51:06;;;;;;;;;;;;;;;13.67;54.68;97072.20;1712228;83;20097;-86
2021/06/14 00:53:36;;;;;;;;;;;;;;;13.68;54.73;97071.70;1720733;83;20188;-87
2021/06/14 00:56:05;;;;;;;;;;;;;;;13.67;54.98;97076.17;1721678;83;20449;-86
2021/06/14 00:58:32;;;;;;;;;;;;;;;13.68;55.67;97067.25;1714571;83;20109;-86
2021/06/14 01:00:59;;;;;;;;;;;;;;;13.70;54.60;97068.42;1712778;83;20130;-87
2021/06/14 01:03:26;;;;;;;;;;;;;;;13.70;54.88;97067.92;1710441;84;20097;-87
2021/06/14 01:05:58;;;;;;;;;;;;;;;13.70;54.94;97075.87;1716220;83;20168;-87
2021/06/14 01:08:26;;;;;;;;;;;;;;;13.70;55.56;97079.84;1720521;83;20176;-88
2021/06/14 01:10:52;;;;;;;;;;;;;;;13.70;54.83;97090.44;1721407;83;20462;-85
2021/06/14 01:13:40;;;;;;;;;;;;;;;13.71;55.27;97077.54;1715496;83;20208;-87
2021/06/14 01:16:33;;;;;;;;;;;;;;;13.72;55.41;97076.56;1711952;83;20406;-87
2021/06/14 01:19:23;;;;;;;;;;;;;;;13.71;55.37;97077.54;1716184;82;20126;-88
2021/06/14 01:22:15;;;;;;;;;;;;;;;13.69;55.91;97075.52;1710649;84;20094;-87
2021/06/14 01:24:53;;;;;;;;;;;;;;;13.67;55.85;97074.85;1710688;83;20090;-85
2021/06/14 01:27:40;;;;;;;;;;;;;;;13.61;55.61;97064.81;1712414;82;20125;-88
2021/06/14 01:30:15;;;;;;;;;;;;;;;13.57;56.44;97066.91;1720874;82;20137;-87
2021/06/14 01:32:43;;;;;;;;;;;;;;;13.57;55.46;97067.41;1714640;83;20392;-88
2021/06/14 01:35:13;;;;;;;;;;;;;;;13.55;55.45;97064.06;1711532;83;20400;-88
2021/06/14 01:37:49;;;;;;;;;;;;;;;13.54;55.16;97065.04;1694771;84;20093;-88
2021/06/14 01:40:18;;;;;;;;;;;;;;;13.51;55.55;97057.38;1717436;84;20397;-88
2021/06/14 01:42:47;;;;;;;;;;;;;;;13.47;55.92;97059.98;1711797;83;20196;-88
2021/06/14 01:45:13;;;;;;;;;;;;;;;13.46;55.75;97057.80;1697121;84;20110;-85
2021/06/14 01:47:41;;;;;;;;;;;;;;;13.43;55.71;97064.22;1705010;84;20411;-87
2021/06/14 01:50:08;;;;;;;;;;;;;;;13.46;55.81;97060.95;1689014;85;20091;-85
2021/06/14 01:52:35;;;;;;;;;;;;;;;13.48;56.37;97066.95;1695093;84;20104;-88
2021/06/14 01:55:02;;;;;;;;;;;;;;;13.48;56.14;97057.67;1673621;84;20123;-86
2021/06/14 01:57:30;;;;;;;;;;;;;;;13.46;55.44;97063.59;1691759;84;20132;-87
2021/06/14 01:59:58;;;;;;;;;;;;;;;13.43;56.16;97060.75;1708081;84;20113;-87
2021/06/14 02:02:31;;;;;;;;;;;;;;;13.43;55.74;97058.92;1688169;84;20412;-87
2021/06/14 02:05:01;;;;;;;;;;;;;;;13.45;56.07;97056.16;1688962;83;20457;-87
2021/06/14 02:07:30;;;;;;;;;;;;;;;13.45;55.73;97056.16;1691565;84;20123;-84
2021/06/14 02:09:57;;;;;;;;;;;;;;;13.45;55.56;97060.60;1692985;84;20117;-87
2021/06/14 02:12:24;;;;;;;;;;;;;;;13.48;55.71;97061.14;1709471;84;20107;-84
2021/06/14 02:14:52;;;;;;;;;;;;;;;13.47;55.90;97056.83;1716817;84;20398;-87
2021/06/14 02:17:24;;;;;;;;;;;;;;;13.45;56.07;97056.16;1714510;84;20405;-87
2021/06/14 02:19:52;;;;;;;;;;;;;;;13.44;55.75;97054.48;1717520;84;20109;-89
2021/06/14 02:22:20;;;;;;;;;;;;;;;13.43;55.92;97052.31;1697677;82;20103;-88
2021/06/14 02:24:47;;;;;;;;;;;;;;;13.41;55.71;97054.76;1693313;84;20165;-85
2021/06/14 02:27:16;;;;;;;;;;;;;;;13.40;55.97;97053.94;1700915;84;20090;-84
2021/06/14 02:29:43;;;;;;;;;;;;;;;13.41;55.69;97062.20;1680305;85;20103;-85
2021/06/14 02:32:09;;;;;;;;;;;;;;;13.40;55.89;97059.23;1691204;84;20096;-86
2021/06/14 02:34:38;;;;;;;;;;;;;;;13.41;55.92;97060.05;1706315;84;20407;-86
2021/06/14 02:37:06;;;;;;;;;;;;;;;13.41;55.78;97071.46;1693203;84;20441;-82
2021/06/14 02:39:35;;;;;;;;;;;;;;;13.41;56.42;97072.79;1706018;84;20138;-86
2021/06/14 02:42:03;;;;;;;;;;;;;;;13.42;57.10;97070.48;1701985;84;20395;-85
2021/06/14 02:44:31;;;;;;;;;;;;;;;13.43;56.17;97059.42;1718970;82;20195;-83
2021/06/14 02:47:03;;;;;;;;;;;;;;;13.43;56.42;97062.90;1706987;83;20175;-86
2021/06/14 02:49:31;;;;;;;;;;;;;;;13.45;55.89;97065.42;1706882;84;20123;-86
2021/06/14 02:51:58;;;;;;;;;;;;;;;13.41;56.66;97060.88;1707080;84;20086;-87
2021/06/14 02:54:27;;;;;;;;;;;;;;;13.42;56.35;97058.58;1707097;84;20099;-86
2021/06/14 02:56:56;;;;;;;;;;;;;;;13.41;56.46;97058.23;1706130;83;20103;-83
2021/06/14 02:59:25;;;;;;;;;;;;;;;13.39;57.04;97064.64;1703616;84;20146;-84
2021/06/14 03:01:52;;;;;;;;;;;;;;;13.32;56.01;97063.52;1681363;84;20109;-86
2021/06/14 03:04:19;;;;;;;;;;;;;;;13.27;57.55;97061.30;1712206;83;20110;-83
2021/06/14 03:06:48;;;;;;;;;;;;;;;13.26;56.34;97069.73;1682292;85;20119;-85
2021/06/14 03:09:15;;;;;;;;;;;;;;;13.25;57.46;97065.89;1713783;84;20109;-87
2021/06/14 03:11:43;;;;;;;;;;;;;;;13.25;59.45;97065.89;1724604;83;20173;-85
2021/06/14 03:14:12;;;;;;;;;;;;;;;13.25;59.13;97069.86;1718967;82;20193;-89
2021/06/14 03:16:38;;;;;;;;;;;;;;;13.20;57.45;97070.78;1699398;83;20133;-89
2021/06/14 03:19:09;;;;;;;;;;;;;;;13.16;58.70;97067.58;1696999;84;20135;-90
2021/06/14 03:21:36;;;;;;;;;;;;;;;13.15;57.30;97067.23;1701412;84;20119;-89
2021/06/14 03:24:04;;;;;;;;;;;;;;;13.15;58.11;97071.67;1707869;84;20139;-89
2021/06/14 03:26:38;;;;;;;;;;;;;;;13.13;60.36;97075.80;1681531;84;20157;-87
2021/06/14 03:29:06;;;;;;;;;;;;;;;13.08;59.67;97074.06;1700271;84;20475;-88
2021/06/14 03:31:33;;;;;;;;;;;;;;;13.08;59.59;97073.56;1706962;84;20186;-87
2021/06/14 03:34:00;;;;;;;;;;;;;;;13.04;60.14;97073.98;1697360;84;20392;-86
2021/06/14 03:36:30;;;;;;;;;;;;;;;13.02;59.81;97073.28;1708266;84;20126;-86
2021/06/14 03:38:57;;;;;;;;;;;;;;;12.96;61.86;97072.02;1702563;84;20143;-87
2021/06/14 03:41:23;;;;;;;;;;;;;;;12.95;61.17;97067.70;1700148;84;20176;-88
2021/06/14 03:43:50;;;;;;;;;;;;;;;12.93;60.77;97066.53;1706672;83;20161;-87
2021/06/14 03:46:17;;;;;;;;;;;;;;;12.90;61.47;97070.76;1715220;83;20098;-86
2021/06/14 03:48:44;;;;;;;;;;;;;;;12.88;60.93;97073.20;1712323;83;20200;-88
2021/06/14 03:51:12;;;;;;;;;;;;;;;12.84;61.58;97070.50;1711803;84;20178;-85
2021/06/14 03:53:39;;;;;;;;;;;;;;;12.84;59.34;97065.21;1717913;83;20105;-85
2021/06/14 03:56:08;;;;;;;;;;;;;;;12.81;62.13;97068.47;1709558;84;20135;-87
2021/06/14 03:58:35;;;;;;;;;;;;;;;12.87;62.11;97068.41;1709582;84;20148;-85
2021/06/14 04:01:02;;;;;;;;;;;;;;;12.90;62.25;97062.83;1709063;84;20123;-86
2021/06/14 04:03:29;;;;;;;;;;;;;;;12.96;61.06;97065.41;1712394;83;20102;-84
2021/06/14 04:06:01;;;;;;;;;;;;;;;12.97;62.07;97067.08;1706167;84;20421;-84
2021/06/14 04:08:37;;;;;;;;;;;;;;;13.01;63.67;97071.60;1708728;84;20139;-88
2021/06/14 04:11:04;;;;;;;;;;;;;;;13.05;61.52;97069.86;1708378;84;20158;-87
2021/06/14 04:13:30;;;;;;;;;;;;;;;13.08;61.49;97069.59;1708225;84;20123;-86
2021/06/14 04:15:58;;;;;;;;;;;;;;;13.09;62.71;97067.30;1708404;84;20091;-86
2021/06/14 04:18:25;;;;;;;;;;;;;;;13.10;62.75;97070.77;1704089;84;20147;-88
2021/06/14 04:20:51;;;;;;;;;;;;;;;13.16;62.41;97068.05;1708011;84;20103;-87
2021/06/14 04:23:17;;;;;;;;;;;;;;;13.18;63.13;97070.08;1707987;84;20107;-86
2021/06/14 04:25:44;;;;;;;;;;;;;;;13.15;61.61;97079.14;1698081;84;20099;-84
2021/06/14 04:28:10;;;;;;;;;;;;;;;13.13;61.97;97077.11;1700556;84;20124;-88
2021/06/14 04:30:36;;;;;;;;;;;;;;;13.11;63.00;97077.73;1705756;84;20099;-88
2021/06/14 04:33:04;;;;;;;;;;;;;;;13.06;63.13;97081.30;1707333;84;20095;-88
2021/06/14 04:35:33;;;;;;;;;;;;;;;13.02;64.13;97075.92;1700909;84;20147;-87
2021/06/14 04:38:00;;;;;;;;;;;;;;;12.99;63.84;97075.72;1701395;84;20155;-86
2021/06/14 04:40:26;;;;;;;;;;;;;;;12.97;63.72;97068.41;1657832;85;20192;-86
2021/06/14 04:42:52;;;;;;;;;;;;;;;12.97;63.64;97071.05;1680412;84;20440;-87
2021/06/14 04:45:18;;;;;;;;;;;;;;;13.03;64.53;97075.80;1680398;85;20213;-88
2021/06/14 04:47:46;;;;;;;;;;;;;;;13.05;63.49;97070.36;1679964;85;20397;-87
2021/06/14 04:50:13;;;;;;;;;;;;;;;13.08;62.17;97082.00;1682590;85;20112;-86
2021/06/14 04:52:39;;;;;;;;;;;;;;;13.06;63.38;97084.77;1681170;85;20129;-88
2021/06/14 04:55:05;;;;;;;;;;;;;;;13.07;64.48;97079.00;1653547;86;20136;-87
2021/06/14 04:57:32;;;;;;;;;;;;;;;13.07;64.73;97077.69;1679220;85;20141;-86
2021/06/14 04:59:58;;;;;;;;;;;;;;;13.07;65.22;97081.65;1681698;85;20223;-87
2021/06/14 05:02:24;;;;;;;;;;;;;;;13.10;63.93;97080.88;1679248;85;20141;-89
2021/06/14 05:04:50;;;;;;;;;;;;;;;13.17;63.99;97079.84;1680912;85;20136;-87
2021/06/14 05:07:16;;;;;;;;;;;;;;;13.21;64.39;97080.39;1682615;85;20112;-87
2021/06/14 05:09:42;;;;;;;;;;;;;;;13.22;65.19;97078.09;1682606;84;20096;-85
2021/06/14 05:12:09;;;;;;;;;;;;;;;13.24;65.36;97087.56;1650373;87;20105;-87
2021/06/14 05:14:35;;;;;;;;;;;;;;;13.21;64.38;97093.12;1693908;85;20169;-87
2021/06/14 05:17:02;;;;;;;;;;;;;;;13.19;63.92;97087.13;1693939;85;20111;-89
2021/06/14 05:19:28;;;;;;;;;;;;;;;13.19;64.04;97088.45;1693943;85;20146;-88
2021/06/14 05:21:54;;;;;;;;;;;;;;;13.19;65.56;97088.95;1693622;85;20161;-84
2021/06/14 05:24:20;;;;;;;;;;;;;;;13.18;63.78;97097.86;1693761;85;20108;-87
2021/06/14 05:26:46;;;;;;;;;;;;;;;13.10;64.20;97106.02;1693564;85;20135;-87
2021/06/14 05:29:13;;;;;;;;;;;;;;;13.12;64.30;97108.05;1693676;85;20151;-87
2021/06/14 05:31:39;;;;;;;;;;;;;;;13.03;67.82;97106.70;1692615;85;20115;-87
2021/06/14 05:34:06;;;;;;;;;;;;;;;12.99;67.60;97109.30;1693795;85;20413;-88
2021/06/14 05:36:32;;;;;;;;;;;;;;;13.00;65.83;97101.20;1693769;85;20116;-88
2021/06/14 05:38:58;;;;;;;;;;;;;;;12.99;65.90;97103.50;1693687;85;20111;-86
2021/06/14 05:41:25;;;;;;;;;;;;;;;13.08;65.19;97107.97;1701085;84;20126;-85
2021/06/14 05:43:51;;;;;;;;;;;;;;;13.17;65.72;97105.45;1681132;84;20098;-86
2021/06/14 05:46:17;;;;;;;;;;;;;;;13.22;66.19;97114.65;1706929;84;20122;-83
2021/06/14 05:48:43;;;;;;;;;;;;;;;13.30;67.31;97115.76;1707171;84;20103;-87
2021/06/14 05:51:10;;;;;;;;;;;;;;;13.32;66.90;97120.43;1707061;84;20131;-85
2021/06/14 05:53:36;;;;;;;;;;;;;;;13.27;66.08;97120.84;1707131;84;20163;-87
2021/06/14 05:56:03;;;;;;;;;;;;;;;13.24;65.30;97114.50;1707428;84;20099;-87
2021/06/14 05:58:29;;;;;;;;;;;;;;;13.20;65.93;97125.03;1707184;84;20364;-88
2021/06/14 06:00:55;;;;;;;;;;;;;;;13.10;66.08;97129.84;1707556;84;20095;-88
2021/06/14 06:03:22;;;;;;;;;;;;;;;13.10;68.01;97129.84;1707386;84;20135;-86
2021/06/14 06:05:48;;;;;;;;;;;;;;;13.10;65.08;97137.77;1706652;84;20444;-87
2021/06/14 06:08:15;;;;;;;;;;;;;;;13.07;67.98;97137.22;1707248;84;20135;-87
2021/06/14 06:10:41;;;;;;;;;;;;;;;13.06;67.89;97136.37;1707141;84;20095;-87
2021/06/14 06:13:07;;;;;;;;;;;;;;;13.10;65.53;97140.42;1707176;84;20146;-84
2021/06/14 06:15:33;;;;;;;;;;;;;;;13.16;65.62;97142.16;1707256;84;20095;-88
2021/06/14 06:17:59;;;;;;;;;;;;;;;13.16;69.16;97136.39;1707225;84;20103;-84
2021/06/14 06:20:25;;;;;;;;;;;;;;;13.18;66.59;97143.68;1706357;84;20094;-87
2021/06/14 06:22:52;;;;;;;;;;;;;;;13.15;66.23;97145.30;1714402;83;20105;-86
2021/06/14 06:25:20;;;;;;;;;;;;;;;13.19;67.78;97143.20;1706784;84;20439;-88
2021/06/14 06:27:48;;;;;;;;;;;;;;;13.23;66.81;97143.27;1706726;84;20392;-87
2021/06/14 06:30:17;;;;;;;;;;;;;;;13.25;66.02;97145.29;1706753;84;20412;-85
2021/06/14 06:32:43;;;;;;;;;;;;;;;13.30;67.01;97144.88;1706740;84;20126;-87
2021/06/14 06:35:11;;;;;;;;;;;;;;;13.35;66.93;97136.87;1707041;84;20107;-88
2021/06/14 06:37:37;;;;;;;;;;;;;;;13.33;68.07;97144.10;1707049;84;20131;-86
2021/06/14 06:40:06;;;;;;;;;;;;;;;13.37;66.59;97141.54;1705662;84;20155;-86
2021/06/14 06:42:32;;;;;;;;;;;;;;;13.39;67.42;97142.27;1705233;84;20118;-87
2021/06/14 06:44:58;;;;;;;;;;;;;;;13.41;66.59;97141.63;1716858;82;20098;-87
2021/06/14 06:47:28;;;;;;;;;;;;;;;13.49;67.06;97141.44;1705622;84;20135;-87
2021/06/14 06:49:54;;;;;;;;;;;;;;;13.48;67.15;97143.23;1699400;84;20107;-86
2021/06/14 06:52:21;;;;;;;;;;;;;;;13.54;65.56;97147.13;1677730;85;20104;-86
2021/06/14 06:54:47;;;;;;;;;;;;;;;13.63;66.70;97142.31;1694247;84;20111;-87
2021/06/14 06:57:14;;;;;;;;;;;;;;;13.73;65.62;97139.66;1702056;84;20150;-88
2021/06/14 06:59:41;;;;;;;;;;;;;;;13.77;66.80;97135.73;1700104;84;20091;-85
2021/06/14 07:02:07;;;;;;;;;;;;;;;13.81;65.96;97138.94;1698502;84;20127;-86
2021/06/14 07:04:33;;;;;;;;;;;;;;;13.84;66.09;97142.63;1682550;84;20095;-84
2021/06/14 07:06:59;;;;;;;;;;;;;;;13.87;65.83;97141.03;1720019;83;20120;-80
2021/06/14 07:09:25;;;;;;;;;;;;;;;13.89;67.28;97143.03;1717696;83;20134;-85
2021/06/14 07:11:52;;;;;;;;;;;;;;;13.89;66.88;97140.38;1723139;83;20436;-84
2021/06/14 07:14:18;;;;;;;;;;;;;;;13.91;66.37;97145.05;1714017;83;20165;-87
2021/06/14 07:16:44;;;;;;;;;;;;;;;13.93;65.78;97147.55;1719760;82;20141;-87
2021/06/14 07:19:12;;;;;;;;;;;;;;;13.97;65.58;97147.12;1729261;82;20122;-85
2021/06/14 07:21:38;;;;;;;;;;;;;;;14.02;65.52;97148.86;1717631;82;20400;-85
2021/06/14 07:24:04;;;;;;;;;;;;;;;14.09;66.65;97149.60;1724329;83;20128;-88
2021/06/14 07:26:30;;;;;;;;;;;;;;;14.16;66.92;97152.87;1730380;82;20170;-85
2021/06/14 07:28:56;;;;;;;;;;;;;;;14.19;66.07;97158.36;1722846;82;20124;-83
2021/06/14 07:31:23;;;;;;;;;;;;;;;14.24;65.02;97161.44;1721945;83;20128;-84
2021/06/14 07:33:50;;;;;;;;;;;;;;;14.28;66.99;97156.67;1716411;83;20105;-84
2021/06/14 07:36:16;;;;;;;;;;;;;;;14.25;66.35;97163.58;1719524;82;20105;-81
2021/06/14 07:38:42;;;;;;;;;;;;;;;14.19;66.21;97160.55;1713229;84;20105;-87
2021/06/14 07:41:09;;;;;;;;;;;;;;;14.28;67.54;97151.37;1715521;83;20098;-82
2021/06/14 07:43:35;;;;;;;;;;;;;;;14.37;66.15;97163.25;1726829;82;20168;-84
2021/06/14 07:46:02;;;;;;;;;;;;;;;14.47;65.46;97159.25;1729599;82;20089;-87
2021/06/14 07:48:28;;;;;;;;;;;;;;;14.51;65.29;97167.24;1724055;82;20145;-84
2021/06/14 07:50:55;;;;;;;;;;;;;;;14.58;65.09;97162.20;1697308;83;20131;-83
2021/06/14 07:53:21;;;;;;;;;;;;;;;14.58;65.96;97169.30;1676568;84;20125;-84
2021/06/14 07:55:48;;;;;;;;;;;;;;;14.56;65.65;97172.61;1741969;82;20105;-86
2021/06/14 07:58:14;;;;;;;;;;;;;;;14.56;64.56;97170.78;1724626;83;20101;-83
2021/06/14 08:00:41;;;;;;;;;;;;;;;14.46;65.04;97173.96;1723293;83;20113;-85
2021/06/14 08:03:08;;;;;;;;;;;;;;;14.50;64.76;97170.88;1726371;83;20120;-82
2021/06/14 08:05:34;;;;;;;;;;;;;;;14.57;65.31;97173.78;1720966;83;20424;-87
2021/06/14 08:08:00;;;;;;;;;;;;;;;14.59;64.87;97167.84;1723476;82;20101;-84
2021/06/14 08:10:27;;;;;;;;;;;;;;;14.70;64.82;97176.62;1757880;82;20137;-84
2021/06/14 08:12:53;;;;;;;;;;;;;;;14.80;65.09;97176.09;1743413;82;20125;-84
2021/06/14 08:15:23;;;;;;;;;;;;;;;14.92;65.02;97181.52;1758563;82;20153;-90
2021/06/14 08:17:51;;;;;;;;;;;;;;;15.02;64.26;97175.31;1758335;82;20492;-87
2021/06/14 08:25:33;;;;;;;;;;;;;;;15.30;63.53;97187.56;1727926;83;20096;-90
2021/06/14 08:27:59;;;;;;;;;;;;;;;15.35;62.99;97190.27;1710722;83;20112;-90
2021/06/14 08:30:27;;;;;;;;;;;;;;;15.37;62.92;97186.95;1714741;82;20121;-86
2021/06/14 08:32:54;;;;;;;;;;;;;;;15.42;61.72;97179.38;1724755;82;20105;-84
2021/06/14 08:35:23;;;;;;;;;;;;;;;15.49;62.24;97187.08;1723871;83;20113;-85
2021/06/14 08:37:50;;;;;;;;;;;;;;;15.59;61.27;97189.67;1720496;83;20096;-88
2021/06/14 08:40:19;;;;;;;;;;;;;;;15.68;61.25;97193.21;1720363;83;20105;-85
2021/06/14 08:42:45;;;;;;;;;;;;;;;15.72;60.91;97193.27;1713102;82;20152;-87
2021/06/14 08:45:13;;;;;;;;;;;;;;;15.78;60.05;97193.97;1714204;82;20106;-84
2021/06/14 08:47:41;;;;;;;;;;;;;;;15.82;60.95;97192.69;1716083;83;20140;-87
2021/06/14 08:50:09;;;;;;;;;;;;;;;15.93;60.47;97190.30;1712630;83;20160;-87
2021/06/14 08:52:36;;;;;;;;;;;;;;;16.16;59.84;97185.78;1715872;82;20394;-90
2021/06/14 08:55:04;;;;;;;;;;;;;;;16.54;58.69;97187.66;1716549;82;20101;-87
2021/06/14 08:57:31;;;;;;;;;;;;;;;16.89;59.08;97196.97;1712890;82;20190;-87
2021/06/14 08:59:57;;;;;;;;;;;;;;;17.31;56.93;97200.09;1691047;84;20424;-89
2021/06/14 09:02:23;;;;;;;;;;;;;;;17.39;55.42;97196.15;1708167;83;20109;-89
2021/06/14 09:04:49;;;;;;;;;;;;;;;17.41;56.99;97192.80;1712421;83;20116;-89
2021/06/14 09:07:17;;;;;;;;;;;;;;;17.54;56.05;97193.64;1711522;83;20121;-89
2021/06/14 09:09:45;;;;;;;;;;;;;;;17.39;55.48;97192.15;1713097;83;20145;-84
2021/06/14 09:12:13;;;;;;;;;;;;;;;17.37;56.15;97190.63;1712223;83;20164;-87
2021/06/14 09:14:41;;;;;;;;;;;;;;;17.43;55.38;97196.65;1710283;83;20132;-89
2021/06/14 09:17:14;;;;;;;;;;;;;;;17.47;54.87;97186.83;1712729;83;20174;-87
2021/06/14 09:19:43;;;;;;;;;;;;;;;17.53;54.88;97193.81;1713441;83;20132;-87
2021/06/14 09:22:16;;;;;;;;;;;;;;;17.48;55.42;97193.83;1713077;83;20113;-87
2021/06/14 09:25:01;;;;;;;;;;;;;;;17.58;55.22;97190.99;1712585;83;20169;-88
2021/06/14 09:27:39;;;;;;;;;;;;;;;17.67;54.40;97197.17;1715846;83;20135;-88
2021/06/14 09:30:18;;;;;;;;;;;;;;;17.69;53.67;97194.33;1716806;83;20132;-86
2021/06/14 09:33:04;;;;;;;;;;;;;;;17.61;54.41;97192.00;1711897;83;20109;-87
2021/06/14 09:35:33;;;;;;;;;;;;;;;17.74;54.95;97187.99;1675564;84;20109;-89
2021/06/14 09:38:08;;;;;;;;;;;;;;;18.15;53.73;97184.01;1707340;83;20161;-86
2021/06/14 09:40:41;;;;;;;;;;;;;;;18.28;53.71;97190.16;1714240;82;20160;-88
2021/06/14 09:43:10;;;;;;;;;;;;;;;18.41;52.96;97179.80;1701222;83;20115;-88
2021/06/14 09:45:41;;;;;;;;;;;;;;;18.67;53.30;97183.20;1679458;85;20404;-88
2021/06/14 09:48:16;;;;;;;;;;;;;;;18.72;52.57;97187.02;1723616;83;20138;-88
2021/06/14 09:50:44;;;;;;;;;;;;;;;18.79;52.40;97179.16;1712118;83;20210;-92
2021/06/14 09:53:16;;;;;;;;;;;;;;;18.89;50.94;97181.59;1708514;84;20099;-91
2021/06/14 09:55:45;;;;;;;;;;;;;;;18.85;52.06;97193.13;1707056;84;20139;-92
2021/06/14 09:58:20;;;;;;;;;;;;;;;18.78;51.55;97192.17;1698806;85;20107;-89
2021/06/14 10:00:57;;;;;;;;;;;;;;;18.67;51.95;97184.53;1698867;84;20111;-92
2021/06/14 10:03:29;;;;;;;;;;;;;;;18.71;52.35;97189.35;1714621;83;20398;-93
2021/06/14 10:05:56;;;;;;;;;;;;;;;18.86;52.14;97179.30;1711392;84;20105;-81
2021/06/14 10:08:29;;;;;;;;;;;;;;;19.06;52.21;97178.91;1711241;84;20102;-90
2021/06/14 10:11:13;;;;;;;;;;;;;;;19.17;51.62;97168.64;1722585;82;20156;-86
2021/06/14 10:13:42;;;;;;;;;;;;;;;19.54;52.07;97175.57;1714803;82;20173;-89
2021/06/14 10:16:19;;;;;;;;;;;;;;;20.02;50.38;97173.21;1709119;83;20137;-87
2021/06/14 10:18:55;;;;;;;;;;;;;;;20.27;49.48;97171.98;1728388;82;20190;-87
2021/06/14 10:21:35;;;;;;;;;;;;;;;20.53;49.34;97181.89;1720656;82;20391;-90
2021/06/14 10:24:09;;;;;;;;;;;;;;;20.47;47.48;97174.61;1711162;84;20142;-89
2021/06/14 10:26:37;;;;;;;;;;;;;;;20.43;49.70;97176.83;1696561;82;20423;-87
2021/06/14 10:29:06;;;;;;;;;;;;;;;20.50;50.03;97175.06;1722169;82;20437;-87
2021/06/14 10:31:35;;;;;;;;;;;;;;;20.36;48.83;97175.39;1720219;83;20140;-89
2021/06/14 10:34:02;;;;;;;;;;;;;;;20.17;48.91;97167.40;1719973;83;20148;-86
2021/06/14 10:36:32;;;;;;;;;;;;;;;19.95;48.49;97171.79;1716685;83;20098;-87
2021/06/14 10:38:59;;;;;;;;;;;;;;;19.79;49.61;97171.39;1718750;83;20162;-89
2021/06/14 10:41:26;;;;;;;;;;;;;;;19.55;49.71;97166.55;1716871;83;20136;-89
2021/06/14 10:43:53;;;;;;;;;;;;;;;19.51;49.22;97172.76;1721937;82;20194;-88
2021/06/14 10:46:24;;;;;;;;;;;;;;;19.25;48.46;97158.91;1720442;82;20146;-92
2021/06/14 10:48:57;;;;;;;;;;;;;;;19.02;49.82;97158.39;1711039;83;20152;-88
2021/06/14 10:51:24;;;;;;;;;;;;;;;18.98;50.11;97161.89;1716261;83;20085;-87
2021/06/14 10:53:51;;;;;;;;;;;;;;;18.88;49.69;97150.07;1721137;83;20140;-88
2021/06/14 10:56:18;;;;;;;;;;;;;;;18.86;50.35;97149.92;1713659;83;20113;-87
2021/06/14 10:58:56;;;;;;;;;;;;;;;18.80;50.61;97151.45;1712675;82;20113;-86
2021/06/14 11:01:31;;;;;;;;;;;;;;;18.73;50.70;97157.98;1712008;83;20134;-87
2021/06/14 11:04:00;;;;;;;;;;;;;;;18.62;50.61;97155.69;1717283;83;20128;-87
2021/06/14 11:06:31;;;;;;;;;;;;;;;18.61;51.01;97158.53;1708248;83;20155;-83
2021/06/14 11:09:04;;;;;;;;;;;;;;;18.70;50.09;97152.98;1713284;83;20199;-87
2021/06/14 11:11:33;;;;;;;;;;;;;;;18.82;50.01;97154.78;1714164;83;20397;-86
2021/06/14 11:13:59;;;;;;;;;;;;;;;18.98;50.33;97153.06;1716567;83;20432;-87
2021/06/14 11:16:29;;;;;;;;;;;;;;;19.20;50.59;97146.08;1713542;83;20422;-89
2021/06/14 11:19:04;;;;;;;;;;;;;;;19.33;48.96;97150.34;1708438;83;20164;-90
2021/06/14 11:21:30;;;;;;;;;;;;;;;19.35;49.53;97134.95;1717069;83;20113;-89
2021/06/14 11:24:08;;;;;;;;;;;;;;;19.18;49.53;97142.75;1720223;82;20094;-88
2021/06/14 11:26:35;;;;;;;;;;;;;;;19.24;49.55;97141.21;1713779;83;20445;-89
2021/06/14 11:29:17;;;;;;;;;;;;;;;19.12;49.74;97144.80;1716697;82;20172;-88
2021/06/14 11:32:01;;;;;;;;;;;;;;;18.69;49.35;97145.16;1720710;83;20113;-84
2021/06/14 11:34:31;;;;;;;;;;;;;;;18.35;50.00;97152.44;1710735;83;20132;-88
2021/06/14 11:36:57;;;;;;;;;;;;;;;18.05;50.72;97146.02;1718065;82;20793;-89
2021/06/14 11:39:25;;;;;;;;;;;;;;;18.04;51.40;97145.68;1717386;83;20796;-87
2021/06/14 11:41:53;;;;;;;;;;;;;;;17.99;51.00;97152.86;1715861;83;20130;-87
2021/06/14 11:44:29;;;;;;;;;;;;;;;17.86;50.69;97163.19;1710945;83;20152;-85
2021/06/14 11:47:13;;;;;;;;;;;;;;;17.56;51.24;97160.19;1698426;84;20185;-87
2021/06/14 11:49:41;;;;;;;;;;;;;;;17.48;51.46;97156.52;1708415;84;20102;-84
2021/06/14 11:52:18;;;;;;;;;;;;;;;17.52;51.72;97159.69;1703193;84;20126;-84
2021/06/14 11:54:45;;;;;;;;;;;;;;;17.58;51.83;97160.86;1699839;84;20102;-82
2021/06/14 11:57:12;;;;;;;;;;;;;;;17.80;51.89;97156.17;1706271;83;20431;-84
2021/06/14 11:59:39;;;;;;;;;;;;;;;18.06;51.49;97151.17;1712280;84;20437;-83
2021/06/14 12:02:18;;;;;;;;;;;;;;;18.10;50.51;97112.98;1716238;82;20086;-83
2021/06/14 12:04:44;;;;;;;;;;;;;;;18.51;50.64;97145.41;1713486;82;20222;-84
2021/06/14 12:07:10;;;;;;;;;;;;;;;18.78;50.28;97136.62;1712476;83;20138;-83
2021/06/14 12:09:40;;;;;;;;;;;;;;;19.00;49.65;97131.84;1711309;82;20106;-82
2021/06/14 12:12:07;;;;;;;;;;;;;;;19.17;49.83;97128.57;1714459;84;20142;-83
2021/06/14 12:14:33;;;;;;;;;;;;;;;19.37;49.92;97124.58;1740381;82;20124;-85
2021/06/14 12:17:05;;;;;;;;;;;;;;;19.56;48.55;97125.44;1717139;82;20137;-85
2021/06/14 12:19:33;;;;;;;;;;;;;;;19.75;47.93;97121.45;1714400;83;20442;-85
2021/06/14 12:22:04;;;;;;;;;;;;;;;20.03;47.98;97117.36;1706842;84;20123;-84
2021/06/14 12:24:30;;;;;;;;;;;;;;;20.31;48.09;97116.23;1706515;84;20111;-82
2021/06/14 12:27:04;;;;;;;;;;;;;;;20.55;47.97;97113.78;1706981;84;20151;-84
2021/06/14 12:29:31;;;;;;;;;;;;;;;20.82;48.57;97110.13;1706557;84;20175;-85
2021/06/14 12:32:12;;;;;;;;;;;;;;;20.93;47.67;97109.31;1705742;84;20087;-83
2021/06/14 12:34:41;;;;;;;;;;;;;;;21.01;46.67;97107.33;1704452;83;20437;-84
2021/06/14 12:37:17;;;;;;;;;;;;;;;21.03;45.82;97104.45;1699994;84;20099;-84
2021/06/14 12:39:56;;;;;;;;;;;;;;;21.04;46.98;97106.97;1704982;84;20107;-84
2021/06/14 12:42:22;;;;;;;;;;;;;;;21.03;45.57;97110.66;1711177;82;20160;-85
2021/06/14 12:44:57;;;;;;;;;;;;;;;21.14;47.51;97109.84;1726186;83;20148;-85
2021/06/14 12:47:27;;;;;;;;;;;;;;;21.29;47.01;97107.92;1724025;83;20116;-85
2021/06/14 12:49:54;;;;;;;;;;;;;;;21.31;45.69;97103.21;1712752;83;20109;-85
2021/06/14 12:52:22;;;;;;;;;;;;;;;21.30;43.80;97102.04;1711569;83;20405;-84
2021/06/14 12:54:49;;;;;;;;;;;;;;;21.29;43.29;97096.39;1704797;83;20144;-85
2021/06/14 12:57:15;;;;;;;;;;;;;;;21.31;44.58;97104.55;1726136;83;20113;-85
2021/06/14 12:59:43;;;;;;;;;;;;;;;21.12;44.32;97102.50;1722378;83;20110;-85
2021/06/14 13:02:12;;;;;;;;;;;;;;;20.97;44.12;97103.88;1720396;83;20386;-84